sensor_id;sensor_type;location;lat;lon;timestamp;P1;durP1;ratioP1;P2;durP2;ratioP2
4583;SDS011;2304;47.606;12.186;2023-09-19T00:02:13;3.90;;;2.20;;
4583;SDS011;2304;47.606;12.186;2023-09-19T00:07:15;5.10;;;2.70;;
4583;SDS011;2304;47.606;12.186;2023-09-19T00:12:18;6.20;;;2.40;;
4583;SDS011;2304;47.606;12.186;2023-09-19T00:17:20;4.67;;;2.53;;
4583;SDS011;2304;47.606;12.186;2023-09-19T00:22:22;5.87;;;3.00;;
4583;SDS011;2304;47.606;12.186;2023-09-19T00:27:27;8.10;;;3.33;;
4583;SDS011;2304;47.606;12.186;2023-09-19T00:32:29;4.47;;;3.17;;
4583;SDS011;2304;47.606;12.186;2023-09-19T00:37:31;6.13;;;3.20;;
4583;SDS011;2304;47.606;12.186;2023-09-19T00:42:34;6.27;;;3.10;;
4583;SDS011;2304;47.606;12.186;2023-09-19T00:47:38;4.90;;;2.70;;
4583;SDS011;2304;47.606;12.186;2023-09-19T00:52:40;4.70;;;2.60;;
4583;SDS011;2304;47.606;12.186;2023-09-19T00:57:45;4.43;;;2.67;;
4583;SDS011;2304;47.606;12.186;2023-09-19T01:02:49;4.10;;;3.30;;
4583;SDS011;2304;47.606;12.186;2023-09-19T01:07:51;6.73;;;3.20;;
4583;SDS011;2304;47.606;12.186;2023-09-19T01:12:59;5.50;;;3.70;;
4583;SDS011;2304;47.606;12.186;2023-09-19T01:18:10;4.37;;;3.20;;
4583;SDS011;2304;47.606;12.186;2023-09-19T01:23:20;7.90;;;2.93;;
4583;SDS011;2304;47.606;12.186;2023-09-19T01:28:32;5.43;;;3.10;;
4583;SDS011;2304;47.606;12.186;2023-09-19T01:33:55;4.77;;;2.47;;
4583;SDS011;2304;47.606;12.186;2023-09-19T01:38:59;4.37;;;2.20;;
4583;SDS011;2304;47.606;12.186;2023-09-19T01:44:09;3.43;;;2.00;;
4583;SDS011;2304;47.606;12.186;2023-09-19T01:49:25;3.70;;;2.03;;
4583;SDS011;2304;47.606;12.186;2023-09-19T01:54:33;5.20;;;2.33;;
4583;SDS011;2304;47.606;12.186;2023-09-19T01:59:43;5.40;;;2.23;;
4583;SDS011;2304;47.606;12.186;2023-09-19T02:04:51;5.70;;;2.47;;
4583;SDS011;2304;47.606;12.186;2023-09-19T02:09:53;3.43;;;2.37;;
4583;SDS011;2304;47.606;12.186;2023-09-19T02:14:55;4.60;;;2.57;;
4583;SDS011;2304;47.606;12.186;2023-09-19T02:19:58;6.03;;;3.17;;
4583;SDS011;2304;47.606;12.186;2023-09-19T02:25:00;8.40;;;4.77;;
4583;SDS011;2304;47.606;12.186;2023-09-19T02:30:05;7.10;;;4.80;;
4583;SDS011;2304;47.606;12.186;2023-09-19T02:35:09;7.20;;;4.73;;
4583;SDS011;2304;47.606;12.186;2023-09-19T02:40:12;7.23;;;5.40;;
4583;SDS011;2304;47.606;12.186;2023-09-19T02:45:19;8.33;;;6.17;;
4583;SDS011;2304;47.606;12.186;2023-09-19T02:50:24;8.70;;;5.70;;
4583;SDS011;2304;47.606;12.186;2023-09-19T02:55:26;7.57;;;5.00;;
4583;SDS011;2304;47.606;12.186;2023-09-19T03:00:28;12.03;;;5.70;;
4583;SDS011;2304;47.606;12.186;2023-09-19T03:05:31;10.50;;;6.40;;
4583;SDS011;2304;47.606;12.186;2023-09-19T03:10:33;8.20;;;5.90;;
4583;SDS011;2304;47.606;12.186;2023-09-19T03:15:40;7.00;;;5.83;;
4583;SDS011;2304;47.606;12.186;2023-09-19T03:20:45;7.70;;;6.23;;
4583;SDS011;2304;47.606;12.186;2023-09-19T03:25:55;8.93;;;5.97;;
4583;SDS011;2304;47.606;12.186;2023-09-19T03:30:59;8.00;;;4.87;;
4583;SDS011;2304;47.606;12.186;2023-09-19T03:36:03;8.30;;;5.40;;
4583;SDS011;2304;47.606;12.186;2023-09-19T03:41:06;8.30;;;5.80;;
4583;SDS011;2304;47.606;12.186;2023-09-19T03:46:07;7.20;;;5.80;;
4583;SDS011;2304;47.606;12.186;2023-09-19T03:51:11;8.33;;;6.37;;
4583;SDS011;2304;47.606;12.186;2023-09-19T03:56:13;7.27;;;5.17;;
4583;SDS011;2304;47.606;12.186;2023-09-19T04:01:14;8.43;;;5.40;;
4583;SDS011;2304;47.606;12.186;2023-09-19T04:06:18;9.00;;;4.87;;
4583;SDS011;2304;47.606;12.186;2023-09-19T04:11:20;9.27;;;5.23;;
4583;SDS011;2304;47.606;12.186;2023-09-19T04:16:22;5.70;;;4.53;;
4583;SDS011;2304;47.606;12.186;2023-09-19T04:21:25;6.60;;;5.20;;
4583;SDS011;2304;47.606;12.186;2023-09-19T04:26:28;6.67;;;4.27;;
4583;SDS011;2304;47.606;12.186;2023-09-19T04:31:30;9.43;;;4.77;;
4583;SDS011;2304;47.606;12.186;2023-09-19T04:36:33;8.90;;;4.60;;
4583;SDS011;2304;47.606;12.186;2023-09-19T04:41:36;7.97;;;4.70;;
4583;SDS011;2304;47.606;12.186;2023-09-19T04:46:40;6.00;;;4.57;;
4583;SDS011;2304;47.606;12.186;2023-09-19T04:51:44;7.80;;;4.90;;
4583;SDS011;2304;47.606;12.186;2023-09-19T04:56:47;8.57;;;5.00;;
4583;SDS011;2304;47.606;12.186;2023-09-19T05:01:49;7.27;;;5.40;;
4583;SDS011;2304;47.606;12.186;2023-09-19T05:06:52;8.77;;;4.87;;
4583;SDS011;2304;47.606;12.186;2023-09-19T05:11:54;11.23;;;5.30;;
4583;SDS011;2304;47.606;12.186;2023-09-19T05:16:56;8.83;;;5.97;;
4583;SDS011;2304;47.606;12.186;2023-09-19T05:21:59;6.70;;;5.50;;
4583;SDS011;2304;47.606;12.186;2023-09-19T05:27:01;8.00;;;4.20;;
4583;SDS011;2304;47.606;12.186;2023-09-19T05:32:04;4.30;;;3.53;;
4583;SDS011;2304;47.606;12.186;2023-09-19T05:37:08;10.13;;;3.63;;
4583;SDS011;2304;47.606;12.186;2023-09-19T05:42:10;7.20;;;3.60;;
4583;SDS011;2304;47.606;12.186;2023-09-19T05:47:11;5.50;;;2.90;;
4583;SDS011;2304;47.606;12.186;2023-09-19T05:52:14;7.47;;;3.23;;
4583;SDS011;2304;47.606;12.186;2023-09-19T05:57:17;3.63;;;2.70;;
4583;SDS011;2304;47.606;12.186;2023-09-19T06:02:20;6.23;;;3.50;;
4583;SDS011;2304;47.606;12.186;2023-09-19T06:07:23;5.50;;;3.47;;
4583;SDS011;2304;47.606;12.186;2023-09-19T06:12:26;4.23;;;3.30;;
4583;SDS011;2304;47.606;12.186;2023-09-19T06:17:28;8.00;;;3.40;;
4583;SDS011;2304;47.606;12.186;2023-09-19T06:22:32;3.43;;;2.47;;
4583;SDS011;2304;47.606;12.186;2023-09-19T06:27:34;6.70;;;3.40;;
4583;SDS011;2304;47.606;12.186;2023-09-19T06:32:36;6.10;;;3.40;;
4583;SDS011;2304;47.606;12.186;2023-09-19T06:37:39;6.93;;;4.10;;
4583;SDS011;2304;47.606;12.186;2023-09-19T06:42:43;9.30;;;4.87;;
4583;SDS011;2304;47.606;12.186;2023-09-19T06:47:45;5.93;;;3.53;;
4583;SDS011;2304;47.606;12.186;2023-09-19T06:52:52;6.23;;;4.53;;
4583;SDS011;2304;47.606;12.186;2023-09-19T06:57:57;5.93;;;4.40;;
4583;SDS011;2304;47.606;12.186;2023-09-19T07:02:59;9.77;;;4.93;;
4583;SDS011;2304;47.606;12.186;2023-09-19T07:08:05;9.10;;;4.40;;
4583;SDS011;2304;47.606;12.186;2023-09-19T07:13:08;7.40;;;4.90;;
4583;SDS011;2304;47.606;12.186;2023-09-19T07:18:10;12.10;;;5.53;;
4583;SDS011;2304;47.606;12.186;2023-09-19T07:23:14;7.33;;;4.90;;
4583;SDS011;2304;47.606;12.186;2023-09-19T07:28:16;11.30;;;4.60;;
4583;SDS011;2304;47.606;12.186;2023-09-19T07:33:18;5.33;;;4.23;;
4583;SDS011;2304;47.606;12.186;2023-09-19T07:38:21;7.00;;;4.20;;
4583;SDS011;2304;47.606;12.186;2023-09-19T07:43:23;5.47;;;3.83;;
4583;SDS011;2304;47.606;12.186;2023-09-19T07:48:25;8.30;;;4.67;;
4583;SDS011;2304;47.606;12.186;2023-09-19T07:53:28;11.30;;;4.87;;
4583;SDS011;2304;47.606;12.186;2023-09-19T07:58:34;6.40;;;4.50;;
4583;SDS011;2304;47.606;12.186;2023-09-19T08:03:37;9.70;;;5.27;;
4583;SDS011;2304;47.606;12.186;2023-09-19T08:08:41;10.67;;;5.10;;
4583;SDS011;2304;47.606;12.186;2023-09-19T08:13:43;10.53;;;4.03;;
4583;SDS011;2304;47.606;12.186;2023-09-19T08:18:47;7.30;;;3.83;;
4583;SDS011;2304;47.606;12.186;2023-09-19T08:23:56;5.37;;;3.20;;
4583;SDS011;2304;47.606;12.186;2023-09-19T08:28:58;5.40;;;3.20;;
4583;SDS011;2304;47.606;12.186;2023-09-19T08:34:04;6.97;;;3.77;;
4583;SDS011;2304;47.606;12.186;2023-09-19T08:39:07;5.80;;;2.87;;
4583;SDS011;2304;47.606;12.186;2023-09-19T08:44:09;3.77;;;2.43;;
4583;SDS011;2304;47.606;12.186;2023-09-19T08:49:13;4.23;;;3.17;;
4583;SDS011;2304;47.606;12.186;2023-09-19T08:54:32;4.93;;;2.87;;
4583;SDS011;2304;47.606;12.186;2023-09-19T08:59:39;5.10;;;2.53;;
4583;SDS011;2304;47.606;12.186;2023-09-19T09:04:45;5.13;;;2.40;;
4583;SDS011;2304;47.606;12.186;2023-09-19T09:09:49;4.10;;;2.63;;
4583;SDS011;2304;47.606;12.186;2023-09-19T09:14:51;4.80;;;3.30;;
4583;SDS011;2304;47.606;12.186;2023-09-19T09:19:53;4.53;;;2.87;;
4583;SDS011;2304;47.606;12.186;2023-09-19T09:24:57;4.50;;;3.57;;
4583;SDS011;2304;47.606;12.186;2023-09-19T09:30:01;4.80;;;2.60;;
4583;SDS011;2304;47.606;12.186;2023-09-19T09:35:07;5.67;;;2.80;;
4583;SDS011;2304;47.606;12.186;2023-09-19T09:40:11;5.27;;;2.60;;
4583;SDS011;2304;47.606;12.186;2023-09-19T09:45:36;3.60;;;2.10;;
4583;SDS011;2304;47.606;12.186;2023-09-19T09:50:38;3.57;;;2.30;;
4583;SDS011;2304;47.606;12.186;2023-09-19T09:56:01;5.63;;;2.70;;
4583;SDS011;2304;47.606;12.186;2023-09-19T10:01:06;5.33;;;2.43;;
4583;SDS011;2304;47.606;12.186;2023-09-19T10:06:15;4.30;;;2.17;;
4583;SDS011;2304;47.606;12.186;2023-09-19T10:11:28;3.60;;;2.07;;
4583;SDS011;2304;47.606;12.186;2023-09-19T10:16:30;4.93;;;2.20;;
4583;SDS011;2304;47.606;12.186;2023-09-19T10:21:33;5.63;;;2.53;;
4583;SDS011;2304;47.606;12.186;2023-09-19T10:26:38;2.97;;;1.93;;
4583;SDS011;2304;47.606;12.186;2023-09-19T10:31:43;5.63;;;2.50;;
4583;SDS011;2304;47.606;12.186;2023-09-19T10:36:48;6.70;;;2.10;;
4583;SDS011;2304;47.606;12.186;2023-09-19T10:41:54;4.13;;;2.60;;
4583;SDS011;2304;47.606;12.186;2023-09-19T10:46:59;6.27;;;2.47;;
4583;SDS011;2304;47.606;12.186;2023-09-19T10:52:01;3.77;;;2.00;;
4583;SDS011;2304;47.606;12.186;2023-09-19T10:57:09;3.57;;;2.33;;
4583;SDS011;2304;47.606;12.186;2023-09-19T11:02:17;4.17;;;2.57;;
4583;SDS011;2304;47.606;12.186;2023-09-19T11:07:19;8.70;;;2.37;;
4583;SDS011;2304;47.606;12.186;2023-09-19T11:17:54;3.60;;;2.63;;
4583;SDS011;2304;47.606;12.186;2023-09-19T11:28:30;3.50;;;2.70;;
4583;SDS011;2304;47.606;12.186;2023-09-19T11:33:33;4.27;;;2.63;;
4583;SDS011;2304;47.606;12.186;2023-09-19T11:49:35;3.80;;;2.00;;
4583;SDS011;2304;47.606;12.186;2023-09-19T11:54:42;4.00;;;2.20;;
4583;SDS011;2304;47.606;12.186;2023-09-19T11:59:48;4.20;;;2.50;;
4583;SDS011;2304;47.606;12.186;2023-09-19T12:04:53;3.20;;;2.20;;
4583;SDS011;2304;47.606;12.186;2023-09-19T12:10:02;2.97;;;1.83;;
4583;SDS011;2304;47.606;12.186;2023-09-19T12:15:07;4.20;;;2.20;;
4583;SDS011;2304;47.606;12.186;2023-09-19T12:20:10;3.33;;;2.30;;
4583;SDS011;2304;47.606;12.186;2023-09-19T12:25:13;4.33;;;2.33;;
4583;SDS011;2304;47.606;12.186;2023-09-19T12:30:18;3.57;;;1.97;;
4583;SDS011;2304;47.606;12.186;2023-09-19T12:35:26;2.60;;;1.90;;
4583;SDS011;2304;47.606;12.186;2023-09-19T12:40:28;3.60;;;2.20;;
4583;SDS011;2304;47.606;12.186;2023-09-19T12:45:34;3.53;;;1.83;;
4583;SDS011;2304;47.606;12.186;2023-09-19T12:50:46;4.10;;;2.00;;
4583;SDS011;2304;47.606;12.186;2023-09-19T12:56:05;3.03;;;1.40;;
4583;SDS011;2304;47.606;12.186;2023-09-19T13:01:14;2.93;;;1.80;;
4583;SDS011;2304;47.606;12.186;2023-09-19T13:06:34;3.57;;;1.30;;
4583;SDS011;2304;47.606;12.186;2023-09-19T13:11:38;2.50;;;1.50;;
4583;SDS011;2304;47.606;12.186;2023-09-19T13:16:59;2.80;;;1.77;;
4583;SDS011;2304;47.606;12.186;2023-09-19T13:27:41;2.90;;;1.50;;
4583;SDS011;2304;47.606;12.186;2023-09-19T13:32:45;2.07;;;1.33;;
4583;SDS011;2304;47.606;12.186;2023-09-19T13:37:48;4.23;;;1.57;;
4583;SDS011;2304;47.606;12.186;2023-09-19T13:42:51;2.00;;;1.13;;
4583;SDS011;2304;47.606;12.186;2023-09-19T13:47:55;2.50;;;1.40;;
4583;SDS011;2304;47.606;12.186;2023-09-19T13:52:56;3.37;;;1.27;;
4583;SDS011;2304;47.606;12.186;2023-09-19T13:58:00;3.73;;;1.60;;
4583;SDS011;2304;47.606;12.186;2023-09-19T14:03:04;3.07;;;1.50;;
4583;SDS011;2304;47.606;12.186;2023-09-19T14:08:06;2.70;;;1.57;;
4583;SDS011;2304;47.606;12.186;2023-09-19T14:13:08;2.80;;;1.43;;
4583;SDS011;2304;47.606;12.186;2023-09-19T14:18:12;1.87;;;1.20;;
4583;SDS011;2304;47.606;12.186;2023-09-19T14:23:14;2.63;;;1.40;;
4583;SDS011;2304;47.606;12.186;2023-09-19T14:28:15;1.80;;;1.13;;
4583;SDS011;2304;47.606;12.186;2023-09-19T14:33:19;3.43;;;1.40;;
4583;SDS011;2304;47.606;12.186;2023-09-19T14:38:21;2.57;;;1.37;;
4583;SDS011;2304;47.606;12.186;2023-09-19T14:43:23;3.30;;;1.50;;
4583;SDS011;2304;47.606;12.186;2023-09-19T14:48:26;3.17;;;1.40;;
4583;SDS011;2304;47.606;12.186;2023-09-19T14:53:28;3.80;;;1.30;;
4583;SDS011;2304;47.606;12.186;2023-09-19T14:58:30;6.60;;;1.27;;
4583;SDS011;2304;47.606;12.186;2023-09-19T15:03:34;2.60;;;1.57;;
4583;SDS011;2304;47.606;12.186;2023-09-19T15:08:37;3.03;;;1.30;;
4583;SDS011;2304;47.606;12.186;2023-09-19T15:13:40;2.53;;;1.80;;
4583;SDS011;2304;47.606;12.186;2023-09-19T15:18:44;1.90;;;1.20;;
4583;SDS011;2304;47.606;12.186;2023-09-19T15:23:48;2.47;;;1.33;;
4583;SDS011;2304;47.606;12.186;2023-09-19T15:28:50;2.97;;;1.37;;
4583;SDS011;2304;47.606;12.186;2023-09-19T15:33:53;2.80;;;1.37;;
4583;SDS011;2304;47.606;12.186;2023-09-19T15:38:58;3.70;;;1.30;;
4583;SDS011;2304;47.606;12.186;2023-09-19T15:44:01;2.43;;;1.40;;
4583;SDS011;2304;47.606;12.186;2023-09-19T15:49:05;2.00;;;1.10;;
4583;SDS011;2304;47.606;12.186;2023-09-19T15:54:08;2.43;;;1.50;;
4583;SDS011;2304;47.606;12.186;2023-09-19T15:59:13;2.20;;;1.10;;
4583;SDS011;2304;47.606;12.186;2023-09-19T16:04:17;1.90;;;1.30;;
4583;SDS011;2304;47.606;12.186;2023-09-19T16:09:19;4.27;;;1.40;;
4583;SDS011;2304;47.606;12.186;2023-09-19T16:14:21;3.30;;;1.60;;
4583;SDS011;2304;47.606;12.186;2023-09-19T16:19:25;3.87;;;1.93;;
4583;SDS011;2304;47.606;12.186;2023-09-19T16:24:27;7.67;;;1.77;;
4583;SDS011;2304;47.606;12.186;2023-09-19T16:29:29;3.90;;;1.40;;
4583;SDS011;2304;47.606;12.186;2023-09-19T16:34:32;4.20;;;1.40;;
4583;SDS011;2304;47.606;12.186;2023-09-19T16:39:34;4.57;;;1.43;;
4583;SDS011;2304;47.606;12.186;2023-09-19T16:44:36;5.50;;;1.50;;
4583;SDS011;2304;47.606;12.186;2023-09-19T16:49:40;2.70;;;1.40;;
4583;SDS011;2304;47.606;12.186;2023-09-19T16:54:41;3.33;;;1.30;;
4583;SDS011;2304;47.606;12.186;2023-09-19T16:59:43;4.10;;;1.63;;
4583;SDS011;2304;47.606;12.186;2023-09-19T17:04:46;4.37;;;1.53;;
4583;SDS011;2304;47.606;12.186;2023-09-19T17:09:48;6.30;;;2.60;;
4583;SDS011;2304;47.606;12.186;2023-09-19T17:14:50;2.00;;;1.30;;
4583;SDS011;2304;47.606;12.186;2023-09-19T17:19:54;2.30;;;1.30;;
4583;SDS011;2304;47.606;12.186;2023-09-19T17:24:55;3.10;;;1.70;;
4583;SDS011;2304;47.606;12.186;2023-09-19T17:29:57;3.33;;;2.03;;
4583;SDS011;2304;47.606;12.186;2023-09-19T17:35:00;3.47;;;1.90;;
4583;SDS011;2304;47.606;12.186;2023-09-19T17:40:03;2.53;;;1.60;;
4583;SDS011;2304;47.606;12.186;2023-09-19T17:45:06;4.13;;;1.33;;
4583;SDS011;2304;47.606;12.186;2023-09-19T17:50:11;3.17;;;1.60;;
4583;SDS011;2304;47.606;12.186;2023-09-19T17:55:13;3.90;;;1.50;;
4583;SDS011;2304;47.606;12.186;2023-09-19T18:00:16;5.83;;;1.80;;
4583;SDS011;2304;47.606;12.186;2023-09-19T18:05:20;3.50;;;1.60;;
4583;SDS011;2304;47.606;12.186;2023-09-19T18:10:22;3.83;;;1.67;;
4583;SDS011;2304;47.606;12.186;2023-09-19T18:15:24;5.83;;;1.50;;
4583;SDS011;2304;47.606;12.186;2023-09-19T18:20:27;5.93;;;1.77;;
4583;SDS011;2304;47.606;12.186;2023-09-19T18:25:30;3.30;;;1.50;;
4583;SDS011;2304;47.606;12.186;2023-09-19T18:30:32;2.80;;;1.70;;
4583;SDS011;2304;47.606;12.186;2023-09-19T18:35:36;2.97;;;1.57;;
4583;SDS011;2304;47.606;12.186;2023-09-19T18:40:42;3.00;;;1.30;;
4583;SDS011;2304;47.606;12.186;2023-09-19T18:45:44;3.50;;;1.70;;
4583;SDS011;2304;47.606;12.186;2023-09-19T18:50:57;4.00;;;1.47;;
4583;SDS011;2304;47.606;12.186;2023-09-19T18:56:05;3.13;;;1.60;;
4583;SDS011;2304;47.606;12.186;2023-09-19T19:01:08;4.00;;;1.80;;
4583;SDS011;2304;47.606;12.186;2023-09-19T19:06:13;3.83;;;1.70;;
4583;SDS011;2304;47.606;12.186;2023-09-19T19:11:16;3.90;;;2.07;;
4583;SDS011;2304;47.606;12.186;2023-09-19T19:16:21;6.43;;;2.10;;
4583;SDS011;2304;47.606;12.186;2023-09-19T19:21:27;7.30;;;2.10;;
4583;SDS011;2304;47.606;12.186;2023-09-19T19:26:30;3.97;;;1.90;;
4583;SDS011;2304;47.606;12.186;2023-09-19T19:31:32;3.50;;;2.13;;
4583;SDS011;2304;47.606;12.186;2023-09-19T19:36:38;3.13;;;1.60;;
4583;SDS011;2304;47.606;12.186;2023-09-19T19:41:40;3.37;;;1.70;;
4583;SDS011;2304;47.606;12.186;2023-09-19T19:46:43;14.57;;;2.20;;
4583;SDS011;2304;47.606;12.186;2023-09-19T19:51:47;3.93;;;1.70;;
4583;SDS011;2304;47.606;12.186;2023-09-19T19:56:50;4.30;;;2.03;;
4583;SDS011;2304;47.606;12.186;2023-09-19T20:01:51;7.50;;;2.03;;
4583;SDS011;2304;47.606;12.186;2023-09-19T20:06:55;2.50;;;1.60;;
4583;SDS011;2304;47.606;12.186;2023-09-19T20:11:57;3.13;;;1.70;;
4583;SDS011;2304;47.606;12.186;2023-09-19T20:16:58;5.40;;;1.73;;
4583;SDS011;2304;47.606;12.186;2023-09-19T20:22:02;3.80;;;1.90;;
4583;SDS011;2304;47.606;12.186;2023-09-19T20:27:09;7.17;;;1.90;;
4583;SDS011;2304;47.606;12.186;2023-09-19T20:32:13;4.03;;;1.57;;
4583;SDS011;2304;47.606;12.186;2023-09-19T20:37:17;4.20;;;2.17;;
4583;SDS011;2304;47.606;12.186;2023-09-19T20:42:19;8.27;;;2.10;;
4583;SDS011;2304;47.606;12.186;2023-09-19T20:47:23;6.43;;;2.10;;
4583;SDS011;2304;47.606;12.186;2023-09-19T20:52:26;5.37;;;1.83;;
4583;SDS011;2304;47.606;12.186;2023-09-19T20:57:28;3.93;;;2.20;;
4583;SDS011;2304;47.606;12.186;2023-09-19T21:02:30;3.63;;;1.80;;
4583;SDS011;2304;47.606;12.186;2023-09-19T21:07:33;4.87;;;1.87;;
4583;SDS011;2304;47.606;12.186;2023-09-19T21:12:35;2.40;;;1.60;;
4583;SDS011;2304;47.606;12.186;2023-09-19T21:17:37;4.10;;;1.80;;
4583;SDS011;2304;47.606;12.186;2023-09-19T21:22:44;4.27;;;1.90;;
4583;SDS011;2304;47.606;12.186;2023-09-19T21:27:45;7.93;;;1.90;;
4583;SDS011;2304;47.606;12.186;2023-09-19T21:32:47;4.93;;;2.50;;
4583;SDS011;2304;47.606;12.186;2023-09-19T21:37:50;7.13;;;2.03;;
4583;SDS011;2304;47.606;12.186;2023-09-19T21:42:52;6.40;;;2.53;;
4583;SDS011;2304;47.606;12.186;2023-09-19T21:47:54;3.40;;;2.00;;
4583;SDS011;2304;47.606;12.186;2023-09-19T21:52:58;4.03;;;2.00;;
4583;SDS011;2304;47.606;12.186;2023-09-19T21:58:00;5.40;;;1.87;;
4583;SDS011;2304;47.606;12.186;2023-09-19T22:03:02;3.07;;;1.60;;
4583;SDS011;2304;47.606;12.186;2023-09-19T22:08:08;3.43;;;1.73;;
4583;SDS011;2304;47.606;12.186;2023-09-19T22:13:11;3.70;;;1.60;;
4583;SDS011;2304;47.606;12.186;2023-09-19T22:18:15;5.57;;;1.50;;
4583;SDS011;2304;47.606;12.186;2023-09-19T22:23:21;4.43;;;1.60;;
4583;SDS011;2304;47.606;12.186;2023-09-19T22:28:29;4.80;;;1.73;;
4583;SDS011;2304;47.606;12.186;2023-09-19T22:33:35;6.40;;;2.10;;
4583;SDS011;2304;47.606;12.186;2023-09-19T22:38:40;4.47;;;2.27;;
4583;SDS011;2304;47.606;12.186;2023-09-19T22:43:43;3.57;;;1.70;;
4583;SDS011;2304;47.606;12.186;2023-09-19T22:48:48;4.47;;;1.77;;
4583;SDS011;2304;47.606;12.186;2023-09-19T22:53:52;5.17;;;2.00;;
4583;SDS011;2304;47.606;12.186;2023-09-19T22:58:57;8.73;;;2.73;;
4583;SDS011;2304;47.606;12.186;2023-09-19T23:03:59;3.70;;;2.10;;
4583;SDS011;2304;47.606;12.186;2023-09-19T23:09:20;5.63;;;2.20;;
4583;SDS011;2304;47.606;12.186;2023-09-19T23:14:24;7.43;;;2.40;;
4583;SDS011;2304;47.606;12.186;2023-09-19T23:19:32;4.73;;;2.10;;
4583;SDS011;2304;47.606;12.186;2023-09-19T23:24:36;6.40;;;2.20;;
4583;SDS011;2304;47.606;12.186;2023-09-19T23:29:40;4.10;;;2.00;;
4583;SDS011;2304;47.606;12.186;2023-09-19T23:34:43;3.40;;;2.03;;
4583;SDS011;2304;47.606;12.186;2023-09-19T23:39:48;4.40;;;2.07;;
4583;SDS011;2304;47.606;12.186;2023-09-19T23:44:50;5.33;;;2.10;;
4583;SDS011;2304;47.606;12.186;2023-09-19T23:49:54;5.40;;;1.70;;
4583;SDS011;2304;47.606;12.186;2023-09-19T23:54:58;4.87;;;1.90;;
